Time;durP1;ratioP1;P1;durP2;ratioP2;P2;SDS_P1;SDS_P2;PMS_P1;PMS_P2;Temp;Humidity;BMP_temperature;BMP_pressure;BME280_temperature;BME280_humidity;BME280_pressure;Samples;Min_cycle;Max_cycle;Signal;HPM_P1;HPM_P2
2021/08/15 00:01:21;;;;;;;23.02;14.77;;;18.50;75.10;;;;;;5035991;28;20018;-71
2021/08/15 00:03:49;;;;;;;26.13;15.65;;;18.40;75.10;;;;;;5035848;28;20044;-71
2021/08/15 00:06:14;;;;;;;24.67;15.73;;;18.30;75.30;;;;;;5035748;28;20040;-71
2021/08/15 00:08:40;;;;;;;24.52;15.25;;;18.30;75.50;;;;;;5036303;28;20041;-71
2021/08/15 00:11:06;;;;;;;26.73;15.98;;;18.20;75.70;;;;;;5034627;28;20086;-71
2021/08/15 00:13:31;;;;;;;26.05;16.02;;;18.10;75.80;;;;;;5034685;28;20026;-71
2021/08/15 00:15:57;;;;;;;23.52;16.10;;;18.00;76.00;;;;;;5036170;28;20029;-71
2021/08/15 00:18:23;;;;;;;24.20;15.60;;;18.00;76.20;;;;;;5035569;28;20040;-71
2021/08/15 00:20:48;;;;;;;26.30;16.10;;;17.90;76.60;;;;;;5035522;28;20029;-71
2021/08/15 00:23:14;;;;;;;30.92;16.90;;;17.80;77.00;;;;;;5035666;28;20021;-71
2021/08/15 00:25:40;;;;;;;24.48;15.40;;;17.70;77.40;;;;;;5035862;28;20025;-71
2021/08/15 00:28:05;;;;;;;28.63;16.00;;;17.60;77.80;;;;;;5035516;28;20024;-71
2021/08/15 00:30:31;;;;;;;27.67;17.40;;;17.60;78.20;;;;;;5035546;28;20032;-71
2021/08/15 00:32:57;;;;;;;30.77;16.17;;;17.60;78.30;;;;;;5035261;28;20521;-71
2021/08/15 00:35:23;;;;;;;30.92;16.33;;;17.60;78.70;;;;;;5033973;28;20475;-71
2021/08/15 00:37:48;;;;;;;27.23;15.50;;;17.50;79.20;;;;;;5035479;28;20032;-71
2021/08/15 00:40:15;;;;;;;29.98;15.43;;;17.50;79.70;;;;;;5035332;28;20024;-71
2021/08/15 00:42:41;;;;;;;28.40;16.08;;;17.50;80.00;;;;;;5035317;28;20502;-71
2021/08/15 00:45:07;;;;;;;22.67;14.73;;;17.50;80.10;;;;;;5035127;28;20029;-71
2021/08/15 00:47:33;;;;;;;30.20;15.77;;;17.40;80.50;;;;;;5035043;28;20087;-71
2021/08/15 00:50:00;;;;;;;29.77;15.98;;;17.60;81.30;;;;;;5034882;28;20033;-71
2021/08/15 00:52:25;;;;;;;24.75;15.82;;;17.70;80.50;;;;;;5035095;28;20022;-71
2021/08/15 00:54:52;;;;;;;27.20;15.95;;;17.70;80.20;;;;;;5033725;28;20470;-71
2021/08/15 00:57:17;;;;;;;22.80;14.93;;;17.70;80.60;;;;;;5034975;28;20029;-71
2021/08/15 00:59:43;;;;;;;27.83;15.00;;;17.70;80.60;;;;;;5033960;28;20590;-71
2021/08/15 01:02:09;;;;;;;29.23;17.35;;;17.70;80.60;;;;;;5034768;28;20037;-72
2021/08/15 01:04:37;;;;;;;24.95;17.35;;;17.70;80.20;;;;;;5034988;28;20064;-71
2021/08/15 01:07:04;;;;;;;25.42;16.10;;;17.70;80.20;;;;;;5034846;28;20048;-71
2021/08/15 01:09:30;;;;;;;28.75;16.58;;;17.60;80.60;;;;;;5034841;28;20080;-71
2021/08/15 01:11:56;;;;;;;30.17;18.42;;;17.70;80.50;;;;;;5034753;28;20471;-71
2021/08/15 01:14:21;;;;;;;28.13;17.85;;;17.60;80.30;;;;;;5033352;28;20022;-71
2021/08/15 01:16:47;;;;;;;29.85;18.63;;;17.60;80.30;;;;;;5034645;28;20025;-71
2021/08/15 01:19:14;;;;;;;25.65;17.73;;;17.60;80.20;;;;;;5033471;28;20026;-71
2021/08/15 01:21:41;;;;;;;28.27;17.98;;;17.60;80.10;;;;;;5034519;28;20032;-71
2021/08/15 01:24:07;;;;;;;32.67;19.67;;;17.50;79.90;;;;;;5034491;28;20041;-71
2021/08/15 01:26:33;;;;;;;38.38;21.50;;;17.40;80.00;;;;;;5033462;28;20033;-71
2021/08/15 01:28:59;;;;;;;27.67;18.35;;;17.40;80.20;;;;;;5034518;28;20076;-72
2021/08/15 01:31:25;;;;;;;35.03;19.35;;;17.40;80.10;;;;;;5034446;28;20029;-71
2021/08/15 01:33:51;;;;;;;33.33;19.42;;;17.30;80.10;;;;;;5034415;28;20535;-71
2021/08/15 01:36:19;;;;;;;30.63;20.73;;;17.30;80.20;;;;;;5034382;28;20040;-70
2021/08/15 01:38:47;;;;;;;33.20;20.90;;;17.30;80.30;;;;;;5034489;28;20044;-71
2021/08/15 01:41:12;;;;;;;36.92;19.48;;;17.30;80.40;;;;;;5034321;28;20026;-70
2021/08/15 01:44:10;;;;;;;32.08;19.83;;;17.40;80.70;;;;;;5034285;28;20049;-70
2021/08/15 01:46:36;;;;;;;32.00;20.50;;;17.40;80.70;;;;;;5032844;28;20088;-72
2021/08/15 01:49:02;;;;;;;34.30;20.67;;;17.40;80.70;;;;;;5033934;28;20030;-71
2021/08/15 01:51:29;;;;;;;30.63;19.83;;;17.40;80.90;;;;;;5034154;28;20029;-71
2021/08/15 01:53:56;;;;;;;30.40;20.15;;;17.40;80.90;;;;;;5032667;28;20517;-71
2021/08/15 01:56:23;;;;;;;32.45;20.40;;;17.40;81.00;;;;;;5034052;28;20026;-71
2021/08/15 01:58:49;;;;;;;33.80;20.77;;;17.40;81.20;;;;;;5033968;28;20021;-71
2021/08/15 02:01:16;;;;;;;31.88;20.45;;;17.40;81.50;;;;;;5034017;28;20140;-71
2021/08/15 02:03:42;;;;;;;28.08;18.35;;;17.40;81.50;;;;;;5034426;28;20448;-71
2021/08/15 02:06:08;;;;;;;36.10;21.33;;;17.30;81.70;;;;;;5033443;28;20116;-71
2021/08/15 02:08:34;;;;;;;35.10;22.08;;;17.40;81.70;;;;;;5033672;28;20183;-71
2021/08/15 02:10:59;;;;;;;35.08;21.15;;;17.30;81.40;;;;;;5032505;28;20026;-71
2021/08/15 02:13:26;;;;;;;32.85;20.10;;;17.10;81.80;;;;;;5033639;28;20093;-71
2021/08/15 02:15:52;;;;;;;26.58;17.77;;;17.10;82.50;;;;;;5033770;28;20028;-70
2021/08/15 02:18:17;;;;;;;31.13;17.98;;;17.00;83.20;;;;;;5033651;28;20367;-71
2021/08/15 02:20:43;;;;;;;28.70;18.95;;;17.10;83.60;;;;;;5033925;28;20139;-70
2021/08/15 02:23:09;;;;;;;29.30;18.15;;;17.10;82.90;;;;;;5033901;28;20021;-71
2021/08/15 02:25:36;;;;;;;28.70;17.70;;;17.10;82.90;;;;;;5033679;28;20025;-71
2021/08/15 02:28:02;;;;;;;29.25;19.20;;;17.10;83.20;;;;;;5033737;28;20100;-71
2021/08/15 02:30:28;;;;;;;32.92;18.77;;;17.20;83.60;;;;;;5033955;28;20113;-71
2021/08/15 02:32:54;;;;;;;34.45;21.98;;;17.20;83.80;;;;;;5033735;28;20105;-71
2021/08/15 02:35:19;;;;;;;32.53;19.67;;;17.30;83.80;;;;;;5033692;28;20024;-70
2021/08/15 02:37:48;;;;;;;36.03;20.10;;;17.30;83.60;;;;;;5033749;28;20511;-71
2021/08/15 02:40:15;;;;;;;27.58;17.00;;;17.40;83.60;;;;;;5033633;28;20052;-71
2021/08/15 02:42:43;;;;;;;29.83;16.50;;;17.40;83.70;;;;;;5031861;28;20025;-70
2021/08/15 02:45:10;;;;;;;32.15;19.80;;;17.40;83.60;;;;;;5033585;28;20014;-70
2021/08/15 02:47:36;;;;;;;37.05;22.95;;;17.40;83.60;;;;;;5033519;28;20395;-71
2021/08/15 02:50:03;;;;;;;46.33;26.35;;;17.40;83.60;;;;;;5033504;28;20087;-70
2021/08/15 02:52:28;;;;;;;44.60;26.55;;;17.50;83.60;;;;;;5032280;28;20029;-70
2021/08/15 02:54:54;;;;;;;46.75;27.23;;;17.50;83.60;;;;;;5033126;28;20507;-70
2021/08/15 02:57:20;;;;;;;49.08;26.45;;;17.60;83.60;;;;;;5033387;28;20030;-71
2021/08/15 02:59:45;;;;;;;44.65;23.80;;;17.60;83.40;;;;;;5032076;28;20026;-71
2021/08/15 03:02:16;;;;;;;34.92;19.60;;;17.70;83.30;;;;;;5033465;28;20024;-70
2021/08/15 03:04:43;;;;;;;38.33;19.08;;;17.70;83.20;;;;;;5033482;28;20045;-70
2021/08/15 03:07:10;;;;;;;44.13;20.27;;;17.90;83.30;;;;;;5033223;28;20084;-72
2021/08/15 03:09:36;;;;;;;33.22;18.38;;;18.00;83.10;;;;;;5031715;28;20025;-71
2021/08/15 03:12:02;;;;;;;29.38;16.85;;;18.20;82.70;;;;;;5033231;28;20028;-70
2021/08/15 03:14:28;;;;;;;32.90;16.55;;;18.50;82.20;;;;;;5033533;28;20044;-71
2021/08/15 03:16:54;;;;;;;38.70;16.52;;;18.80;81.40;;;;;;5032474;28;20079;-70
2021/08/15 03:19:19;;;;;;;29.65;15.32;;;19.00;80.70;;;;;;5037063;28;20025;-71
2021/08/15 03:21:46;;;;;;;30.90;15.35;;;19.20;80.00;;;;;;5036725;28;20026;-71
2021/08/15 03:24:13;;;;;;;31.38;15.02;;;19.40;79.10;;;;;;5035314;28;20030;-71
2021/08/15 03:26:44;;;;;;;28.40;14.68;;;19.60;78.40;;;;;;5036731;28;20079;-71
2021/08/15 03:29:11;;;;;;;24.15;13.38;;;19.80;77.90;;;;;;5036796;28;20052;-71
2021/08/15 03:31:37;;;;;;;27.27;13.10;;;20.10;77.30;;;;;;5035295;28;20026;-71
2021/08/15 03:34:02;;;;;;;21.92;12.77;;;20.30;76.60;;;;;;5036473;28;20096;-71
2021/08/15 03:36:28;;;;;;;21.98;11.85;;;20.60;75.90;;;;;;5036560;28;20048;-71
2021/08/15 03:38:54;;;;;;;21.67;11.88;;;20.80;75.00;;;;;;5036500;28;20025;-71
2021/08/15 03:41:20;;;;;;;19.52;11.75;;;21.00;74.30;;;;;;5036649;28;20018;-71
2021/08/15 03:43:45;;;;;;;20.90;11.73;;;21.20;73.70;;;;;;5036439;28;20444;-71
2021/08/15 03:46:11;;;;;;;23.35;11.80;;;21.50;73.00;;;;;;5036792;28;20028;-71
2021/08/15 03:48:37;;;;;;;22.65;11.75;;;21.80;72.30;;;;;;5036202;28;20017;-72
2021/08/15 03:51:02;;;;;;;17.77;11.57;;;22.10;71.60;;;;;;5034733;28;20124;-72
2021/08/15 03:53:28;;;;;;;27.60;13.43;;;22.30;70.70;;;;;;5036379;28;20061;-71
2021/08/15 03:55:53;;;;;;;31.25;16.30;;;22.60;69.90;;;;;;5034969;28;20075;-71
2021/08/15 03:58:19;;;;;;;34.97;18.48;;;23.00;69.10;;;;;;5036057;28;20021;-71
2021/08/15 04:00:45;;;;;;;39.20;18.85;;;23.20;68.20;;;;;;5036068;28;20025;-71
2021/08/15 04:03:13;;;;;;;36.28;19.30;;;23.40;67.50;;;;;;5036497;28;20025;-72
2021/08/15 04:05:40;;;;;;;30.45;16.48;;;23.60;66.60;;;;;;5034683;28;20032;-71
2021/08/15 04:08:06;;;;;;;31.23;17.42;;;23.70;66.30;;;;;;5035998;28;20045;-71
2021/08/15 04:10:32;;;;;;;36.40;18.27;;;23.90;65.90;;;;;;5034955;28;20021;-71
2021/08/15 04:12:58;;;;;;;28.70;18.13;;;24.10;65.20;;;;;;5035940;28;20037;-71
2021/08/15 04:15:24;;;;;;;32.15;17.65;;;24.30;64.50;;;;;;5034679;28;20115;-71
2021/08/15 04:17:50;;;;;;;26.50;15.38;;;24.40;64.00;;;;;;5035730;28;20030;-71
2021/08/15 04:20:16;;;;;;;26.02;14.10;;;24.70;64.10;;;;;;5035700;28;20032;-71
2021/08/15 04:22:41;;;;;;;29.90;15.57;;;24.90;62.50;;;;;;5035962;28;20030;-71
2021/08/15 04:25:07;;;;;;;30.27;15.18;;;25.00;61.90;;;;;;5035500;28;20027;-71
2021/08/15 04:27:33;;;;;;;28.02;14.50;;;25.20;61.90;;;;;;5035255;28;20045;-71
2021/08/15 04:29:59;;;;;;;24.13;13.38;;;25.30;61.70;;;;;;5034308;28;20120;-71
2021/08/15 04:32:24;;;;;;;23.15;13.52;;;25.40;61.40;;;;;;5035706;28;20036;-71
2021/08/15 04:34:50;;;;;;;26.35;14.57;;;25.70;61.10;;;;;;5035673;28;20025;-72
2021/08/15 04:37:19;;;;;;;25.25;14.55;;;25.70;60.60;;;;;;5035654;28;20447;-72
2021/08/15 04:39:45;;;;;;;26.23;14.02;;;25.70;60.90;;;;;;5035319;28;20025;-72
2021/08/15 04:42:11;;;;;;;26.55;13.90;;;26.00;60.70;;;;;;5035252;28;20399;-72
2021/08/15 04:44:38;;;;;;;20.15;13.05;;;26.20;60.50;;;;;;5034108;28;20356;-72
2021/08/15 04:47:04;;;;;;;24.88;14.35;;;26.50;60.20;;;;;;5035249;28;20033;-72
2021/08/15 04:49:30;;;;;;;24.65;14.63;;;26.90;59.70;;;;;;5034983;28;20076;-72
2021/08/15 04:51:55;;;;;;;29.67;16.02;;;27.10;59.00;;;;;;5035289;28;20479;-72
2021/08/15 04:54:28;;;;;;;25.95;15.55;;;27.40;58.50;;;;;;5035474;28;20367;-72
2021/08/15 04:56:55;;;;;;;24.55;14.82;;;27.70;58.10;;;;;;5033611;28;20025;-72
2021/08/15 04:59:20;;;;;;;24.13;15.15;;;28.10;57.70;;;;;;5034822;28;20451;-72
2021/08/15 05:01:46;;;;;;;23.88;15.50;;;28.50;56.90;;;;;;5033491;28;20031;-72
2021/08/15 05:04:12;;;;;;;25.25;16.65;;;28.80;56.40;;;;;;5034660;28;20053;-72
2021/08/15 05:06:38;;;;;;;28.02;16.42;;;29.10;56.10;;;;;;5034819;28;20118;-72
2021/08/15 05:09:04;;;;;;;28.02;17.90;;;29.40;55.60;;;;;;5033464;28;20044;-72
2021/08/15 05:11:30;;;;;;;28.73;16.88;;;29.60;55.50;;;;;;5034712;28;20018;-73
2021/08/15 05:13:56;;;;;;;27.30;18.05;;;29.80;55.00;;;;;;5033546;28;20842;-73
2021/08/15 05:16:22;;;;;;;29.05;19.13;;;30.10;54.80;;;;;;5032588;28;20112;-73
2021/08/15 05:18:48;;;;;;;25.27;16.20;;;30.40;54.60;;;;;;5032011;28;20359;-72
2021/08/15 05:21:14;;;;;;;21.88;14.27;;;30.60;54.10;;;;;;5032813;28;20040;-72
2021/08/15 05:23:40;;;;;;;22.48;13.45;;;30.80;53.70;;;;;;5033894;28;20025;-75
2021/08/15 05:26:06;;;;;;;22.80;14.82;;;31.10;53.30;;;;;;5047287;28;20029;-69
2021/08/15 05:28:32;;;;;;;22.00;13.07;;;31.40;53.70;;;;;;5035039;28;20029;-69
2021/08/15 05:30:57;;;;;;;18.08;12.52;;;31.80;52.60;;;;;;5033936;28;20034;-70
2021/08/15 05:33:23;;;;;;;18.88;12.57;;;32.00;52.10;;;;;;5033695;28;20030;-72
2021/08/15 05:35:49;;;;;;;17.77;12.35;;;32.20;52.00;;;;;;5033986;28;20027;-72
2021/08/15 05:38:15;;;;;;;18.67;12.75;;;32.50;51.60;;;;;;5034881;28;20021;-69
2021/08/15 05:40:41;;;;;;;19.77;12.60;;;32.70;51.30;;;;;;5033482;28;20052;-68
2021/08/15 05:43:06;;;;;;;17.70;12.52;;;32.80;51.10;;;;;;5033870;28;20029;-73
2021/08/15 05:45:32;;;;;;;19.25;12.23;;;33.10;51.10;;;;;;5032989;28;20029;-76
2021/08/15 05:47:58;;;;;;;17.38;12.32;;;33.50;50.70;;;;;;5031656;28;20021;-76
2021/08/15 05:50:23;;;;;;;17.23;11.93;;;33.70;50.70;;;;;;5034105;28;20035;-76
2021/08/15 05:52:49;;;;;;;17.15;11.15;;;33.70;50.50;;;;;;5032863;28;20036;-76
2021/08/15 05:55:15;;;;;;;15.13;11.25;;;33.90;50.30;;;;;;5031996;28;20095;-76
2021/08/15 05:57:40;;;;;;;15.02;10.15;;;34.20;50.30;;;;;;5033220;28;20021;-76
2021/08/15 06:00:07;;;;;;;14.27;10.25;;;34.30;49.30;;;;;;5033350;28;20379;-76
2021/08/15 06:02:33;;;;;;;10.38;7.72;;;34.40;48.60;;;;;;5033579;28;20022;-76
2021/08/15 06:04:59;;;;;;;17.10;12.32;;;34.40;46.80;;;;;;5032411;28;20056;-76
2021/08/15 06:07:24;;;;;;;19.15;13.18;;;34.50;47.00;;;;;;5032309;28;20041;-76
2021/08/15 06:09:50;;;;;;;20.73;12.43;;;34.80;47.10;;;;;;5033695;28;20121;-76
2021/08/15 06:12:16;;;;;;;18.58;13.00;;;35.10;47.20;;;;;;5034005;28;20032;-76
2021/08/15 06:14:42;;;;;;;18.23;12.90;;;35.30;46.90;;;;;;5033487;28;20017;-76
2021/08/15 06:17:07;;;;;;;17.33;13.10;;;35.50;47.00;;;;;;5033293;28;20029;-76
2021/08/15 06:19:33;;;;;;;20.77;14.20;;;35.60;46.30;;;;;;5019580;28;20037;-76
2021/08/15 06:22:00;;;;;;;23.58;14.02;;;35.90;46.00;;;;;;5034462;28;20037;-77
2021/08/15 06:24:27;;;;;;;21.10;12.65;;;36.00;45.40;;;;;;5032046;28;20026;-77
2021/08/15 06:26:52;;;;;;;16.77;9.70;;;36.20;44.30;;;;;;5031865;28;20440;-77
2021/08/15 06:29:18;;;;;;;18.75;10.88;;;36.40;42.40;;;;;;5032459;28;20072;-77
2021/08/15 06:31:44;;;;;;;18.20;11.82;;;36.60;42.30;;;;;;5032372;28;20412;-77
2021/08/15 06:34:10;;;;;;;17.42;10.57;;;36.80;41.80;;;;;;5031353;28;20022;-75
2021/08/15 06:36:35;;;;;;;15.50;10.95;;;37.00;41.80;;;;;;5028488;28;20099;-77
2021/08/15 06:39:01;;;;;;;15.65;9.60;;;37.00;41.90;;;;;;5031438;28;20033;-77
2021/08/15 06:41:27;;;;;;;10.93;7.35;;;37.10;42.00;;;;;;5014956;28;20360;-77
2021/08/15 06:43:52;;;;;;;9.50;7.00;;;37.50;41.10;;;;;;5031892;28;20044;-77
2021/08/15 06:46:18;;;;;;;9.82;7.07;;;37.60;40.10;;;;;;5031554;28;20025;-77
2021/08/15 06:48:44;;;;;;;13.70;8.15;;;37.50;39.60;;;;;;5033393;28;20018;-78
2021/08/15 06:51:12;;;;;;;14.15;8.10;;;37.60;39.70;;;;;;5033175;28;20109;-78
2021/08/15 06:53:38;;;;;;;11.68;7.50;;;37.50;40.70;;;;;;5035427;28;20056;-78
2021/08/15 06:56:06;;;;;;;8.27;4.43;;;37.50;40.20;;;;;;5035889;28;20026;-77
2021/08/15 06:58:32;;;;;;;8.52;5.35;;;37.40;38.40;;;;;;5036830;28;20053;-77
2021/08/15 07:00:58;;;;;;;11.73;6.28;;;37.20;39.00;;;;;;5037526;28;20418;-78
2021/08/15 07:03:23;;;;;;;11.05;5.80;;;37.40;38.90;;;;;;5045035;28;20061;-77
2021/08/15 07:05:49;;;;;;;12.63;8.10;;;37.40;39.10;;;;;;5054946;28;20037;-77
2021/08/15 07:08:15;;;;;;;10.25;7.72;;;37.70;39.20;;;;;;5045103;28;20041;-76
2021/08/15 07:10:41;;;;;;;13.05;8.35;;;37.80;39.10;;;;;;5047464;28;20036;-79
2021/08/15 07:13:08;;;;;;;14.27;8.32;;;37.80;38.90;;;;;;5044669;28;20037;-77
2021/08/15 07:15:34;;;;;;;17.98;9.90;;;37.80;38.60;;;;;;5036918;28;20029;-77
2021/08/15 07:18:00;;;;;;;29.40;16.20;;;37.70;38.30;;;;;;5037531;28;20367;-78
2021/08/15 07:20:26;;;;;;;26.08;13.77;;;37.70;38.00;;;;;;5035030;28;20032;-77
2021/08/15 07:22:52;;;;;;;26.48;13.45;;;37.80;38.00;;;;;;5035295;28;20112;-78
2021/08/15 07:25:19;;;;;;;22.02;12.00;;;37.80;37.80;;;;;;5036420;28;20052;-77
2021/08/15 07:27:45;;;;;;;20.33;11.15;;;37.70;37.50;;;;;;5036504;28;20477;-78
2021/08/15 07:30:13;;;;;;;25.60;13.77;;;37.60;37.80;;;;;;5034387;28;20064;-78
2021/08/15 07:32:53;;;;;;;22.52;11.63;;;37.90;37.70;;;;;;5034784;28;20029;-77
2021/08/15 07:35:18;;;;;;;20.50;12.00;;;38.00;37.70;;;;;;5036575;28;20156;-77
2021/08/15 07:37:45;;;;;;;29.00;13.30;;;38.30;37.20;;;;;;5034924;28;20100;-78
2021/08/15 07:40:11;;;;;;;23.02;12.48;;;38.30;36.80;;;;;;5034188;28;20419;-77
2021/08/15 07:42:37;;;;;;;24.17;12.57;;;38.40;36.90;;;;;;5033759;28;20032;-78
2021/08/15 07:45:03;;;;;;;20.13;12.45;;;38.30;36.30;;;;;;5033751;28;20021;-78
2021/08/15 07:47:28;;;;;;;38.55;16.75;;;38.40;36.20;;;;;;5035555;28;20024;-78
2021/08/15 07:49:54;;;;;;;44.95;20.23;;;38.60;36.10;;;;;;5035393;28;20052;-77
2021/08/15 07:52:20;;;;;;;44.40;19.55;;;38.70;36.30;;;;;;5035387;28;20096;-77
2021/08/15 07:54:45;;;;;;;36.40;17.65;;;39.00;35.90;;;;;;5035571;28;20075;-77
2021/08/15 07:57:11;;;;;;;49.58;21.83;;;39.10;36.00;;;;;;5035685;28;20028;-77
2021/08/15 07:59:37;;;;;;;54.30;23.35;;;38.90;35.50;;;;;;5036348;28;20112;-70
2021/08/15 08:02:03;;;;;;;47.17;22.38;;;38.60;35.60;;;;;;5035426;28;20097;-69
2021/08/15 08:04:28;;;;;;;63.70;27.65;;;38.60;37.00;;;;;;5034348;28;20048;-70
2021/08/15 08:06:56;;;;;;;45.92;21.55;;;38.70;36.70;;;;;;5034413;28;20064;-70
2021/08/15 08:09:22;;;;;;;39.08;18.38;;;38.90;36.60;;;;;;5032697;28;20032;-70
2021/08/15 08:11:49;;;;;;;31.83;14.55;;;39.00;36.90;;;;;;5034492;28;20033;-70
2021/08/15 08:14:15;;;;;;;30.88;13.75;;;39.10;36.30;;;;;;5032936;28;20021;-70
2021/08/15 08:16:41;;;;;;;23.73;12.25;;;39.30;36.50;;;;;;5034073;28;20075;-71
2021/08/15 08:19:07;;;;;;;44.42;22.02;;;39.40;36.50;;;;;;5031757;28;20107;-72
2021/08/15 08:21:33;;;;;;;52.08;24.20;;;39.40;36.20;;;;;;5039762;28;20482;-72
2021/08/15 08:24:02;;;;;;;47.47;23.90;;;39.50;36.10;;;;;;5055603;28;20104;-71
2021/08/15 08:26:27;;;;;;;40.10;21.30;;;39.30;35.80;;;;;;5043097;28;20099;-71
2021/08/15 08:28:53;;;;;;;32.35;17.02;;;39.30;36.10;;;;;;5033945;28;20115;-71
2021/08/15 08:31:19;;;;;;;36.75;17.42;;;39.40;35.70;;;;;;5037489;28;20033;-71
2021/08/15 08:33:44;;;;;;;32.70;16.48;;;39.40;35.40;;;;;;5034324;28;20022;-71
2021/08/15 08:36:10;;;;;;;29.88;16.00;;;39.30;34.80;;;;;;5019071;28;20045;-70
2021/08/15 08:38:37;;;;;;;25.33;12.30;;;39.20;35.00;;;;;;5015337;28;20044;-70
2021/08/15 08:41:03;;;;;;;28.17;12.50;;;39.30;34.70;;;;;;5030616;28;20083;-71
2021/08/15 08:43:30;;;;;;;23.73;11.07;;;39.40;35.20;;;;;;5015029;28;20411;-71
2021/08/15 08:45:57;;;;;;;26.67;13.60;;;39.50;35.30;;;;;;5021082;28;20448;-71
2021/08/15 08:48:23;;;;;;;24.27;13.10;;;39.80;35.40;;;;;;5052462;28;20031;-73
2021/08/15 08:50:51;;;;;;;30.05;15.93;;;39.60;34.80;;;;;;5034776;28;20057;-71
2021/08/15 08:53:18;;;;;;;21.80;14.48;;;39.30;35.00;;;;;;5035757;28;20121;-71
2021/08/15 08:55:43;;;;;;;22.05;11.65;;;38.90;35.40;;;;;;5034977;28;20061;-71
2021/08/15 08:58:10;;;;;;;19.95;11.00;;;39.00;36.90;;;;;;5035124;28;20416;-71
2021/08/15 09:00:36;;;;;;;18.65;9.32;;;39.00;37.00;;;;;;5034684;28;20017;-72
2021/08/15 09:03:02;;;;;;;19.33;10.23;;;39.00;37.20;;;;;;5035105;28;20029;-71
2021/08/15 09:05:33;;;;;;;20.30;9.15;;;39.00;36.80;;;;;;5034720;28;20430;-72
2021/08/15 09:08:00;;;;;;;23.65;12.63;;;39.00;36.60;;;;;;5022362;28;20045;-80
2021/08/15 09:10:38;;;;;;;16.55;11.32;;;38.80;36.00;;;;;;5047028;28;20033;-76
2021/08/15 09:13:06;;;;;;;20.05;10.32;;;38.60;36.60;;;;;;5043520;28;20034;-77
2021/08/15 09:15:32;;;;;;;19.85;12.95;;;38.40;37.00;;;;;;5034240;28;20363;-68
2021/08/15 09:17:59;;;;;;;19.40;10.10;;;38.40;37.70;;;;;;5045376;28;20104;-70
2021/08/15 09:20:45;;;;;;;21.45;10.80;;;38.50;37.50;;;;;;5043341;28;20029;-70
2021/08/15 09:23:31;;;;;;;25.83;13.45;;;38.70;37.30;;;;;;5033523;28;20051;-72
2021/08/15 09:26:19;;;;;;;24.13;13.50;;;38.60;36.90;;;;;;5031066;28;20414;-70
2021/08/15 09:28:48;;;;;;;22.38;11.88;;;38.40;36.60;;;;;;5040056;28;20021;-69
2021/08/15 09:31:31;;;;;;;19.50;11.00;;;38.30;37.80;;;;;;5050806;28;20120;-69
2021/08/15 09:33:59;;;;;;;21.35;12.07;;;38.10;37.20;;;;;;5034484;28;20104;-70
2021/08/15 09:36:40;;;;;;;20.33;9.48;;;38.00;36.70;;;;;;5031853;28;20056;-70
2021/08/15 09:39:07;;;;;;;18.95;9.57;;;37.80;37.20;;;;;;5032347;28;20037;-69
2021/08/15 09:41:37;;;;;;;15.63;7.90;;;37.60;37.20;;;;;;5031003;28;20057;-69
2021/08/15 09:44:20;;;;;;;19.35;10.18;;;37.40;37.80;;;;;;5033736;28;20033;-69
2021/08/15 09:47:00;;;;;;;18.85;10.60;;;37.50;37.60;;;;;;5034102;28;20017;-69
2021/08/15 09:49:37;;;;;;;17.35;9.23;;;37.60;37.10;;;;;;5037934;28;20032;-71
2021/08/15 09:52:04;;;;;;;15.00;8.65;;;37.60;38.00;;;;;;5032751;28;20030;-67
2021/08/15 09:54:32;;;;;;;15.77;9.10;;;37.70;37.30;;;;;;5031908;28;20036;-67
2021/08/15 09:56:58;;;;;;;17.17;8.73;;;37.60;37.20;;;;;;5026174;28;20053;-67
2021/08/15 09:59:25;;;;;;;16.70;10.05;;;37.40;37.10;;;;;;5031522;28;20481;-67
2021/08/15 10:01:52;;;;;;;16.40;9.75;;;37.30;37.30;;;;;;5031568;28;20052;-67
2021/08/15 10:04:19;;;;;;;16.83;7.97;;;37.20;36.90;;;;;;5032322;28;20036;-67
2021/08/15 10:06:50;;;;;;;14.00;7.72;;;37.30;37.50;;;;;;5033583;28;20079;-66
2021/08/15 10:09:16;;;;;;;11.15;6.30;;;37.40;36.80;;;;;;5031871;28;20028;-67
2021/08/15 10:11:43;;;;;;;13.48;5.82;;;37.40;36.30;;;;;;5032944;28;20022;-67
2021/08/15 10:14:11;;;;;;;10.73;6.38;;;37.30;36.30;;;;;;5033365;28;20013;-67
2021/08/15 10:16:49;;;;;;;12.38;6.70;;;37.20;36.30;;;;;;5032955;28;20036;-67
2021/08/15 10:19:19;;;;;;;12.38;7.05;;;37.10;36.60;;;;;;5032565;28;20533;-67
2021/08/15 10:21:46;;;;;;;9.95;5.55;;;37.20;37.10;;;;;;5032405;28;20026;-67
2021/08/15 10:24:14;;;;;;;9.70;5.80;;;37.40;37.50;;;;;;5031843;28;20419;-67
2021/08/15 10:26:58;;;;;;;10.15;4.85;;;37.60;36.10;;;;;;5035512;28;20021;-67
2021/08/15 10:29:41;;;;;;;8.85;4.78;;;37.30;36.20;;;;;;5038840;28;20017;-67
2021/08/15 10:32:16;;;;;;;10.70;4.28;;;37.00;36.70;;;;;;5038247;28;20037;-67
2021/08/15 10:34:51;;;;;;;8.02;4.25;;;37.20;36.40;;;;;;5038078;28;20076;-67
2021/08/15 10:37:23;;;;;;;8.60;4.20;;;37.20;36.60;;;;;;5038131;28;20403;-67
2021/08/15 10:39:49;;;;;;;10.02;6.35;;;37.20;36.80;;;;;;5037760;28;20038;-67
2021/08/15 10:42:37;;;;;;;12.60;5.40;;;37.30;36.90;;;;;;5039734;28;20525;-67
2021/08/15 10:45:12;;;;;;;9.93;5.15;;;37.50;37.30;;;;;;5038138;28;20091;-68
2021/08/15 10:47:39;;;;;;;6.35;3.70;;;37.80;38.10;;;;;;5038516;28;20072;-67
2021/08/15 10:50:07;;;;;;;5.10;3.17;;;37.90;36.80;;;;;;5038765;28;20112;-67
2021/08/15 10:52:39;;;;;;;5.30;3.20;;;38.00;35.60;;;;;;5039959;28;20021;-67
2021/08/15 10:55:13;;;;;;;8.80;4.43;;;38.00;36.00;;;;;;5040519;28;20026;-68
2021/08/15 10:57:43;;;;;;;9.05;4.32;;;37.80;36.10;;;;;;5035007;28;20038;-69
2021/08/15 11:00:30;;;;;;;6.95;4.28;;;37.80;36.60;;;;;;5049603;28;20074;-69
2021/08/15 11:03:15;;;;;;;8.45;5.50;;;38.00;36.00;;;;;;5038401;28;20021;-68
2021/08/15 11:05:40;;;;;;;8.77;5.50;;;38.00;35.40;;;;;;5046247;28;20562;-69
2021/08/15 11:08:47;;;;;;;7.95;4.28;;;38.00;36.10;;;;;;5039583;28;20045;-69
2021/08/15 11:11:27;;;;;;;6.20;3.75;;;38.10;36.70;;;;;;5035453;28;20171;-69
2021/08/15 11:14:19;;;;;;;8.65;3.95;;;38.00;36.40;;;;;;5038314;28;20053;-69
2021/08/15 11:16:50;;;;;;;8.27;3.42;;;38.00;36.00;;;;;;5060693;28;20038;-70
2021/08/15 11:19:17;;;;;;;6.63;3.65;;;37.90;36.20;;;;;;5039234;28;20044;-68
2021/08/15 11:22:16;;;;;;;10.32;5.95;;;37.80;36.30;;;;;;5038576;28;20396;-68
2021/08/15 11:24:45;;;;;;;10.18;4.95;;;37.80;36.30;;;;;;5031017;28;20363;-68
2021/08/15 11:27:31;;;;;;;7.45;4.03;;;37.70;36.30;;;;;;5034369;28;20155;-69
2021/08/15 11:30:00;;;;;;;9.18;6.35;;;37.70;35.40;;;;;;5019761;28;20030;-67
2021/08/15 11:32:31;;;;;;;6.32;4.80;;;37.40;35.20;;;;;;5029706;28;20040;-67
2021/08/15 11:35:09;;;;;;;9.93;6.00;;;37.20;35.70;;;;;;5037471;28;20022;-72
2021/08/15 11:37:46;;;;;;;7.75;5.00;;;36.90;35.80;;;;;;5035084;28;20036;-67
2021/08/15 11:40:21;;;;;;;7.35;3.67;;;36.30;36.40;;;;;;5036165;28;20379;-67
2021/08/15 11:43:00;;;;;;;4.90;3.47;;;35.70;35.80;;;;;;5031526;28;20033;-67
2021/08/15 11:45:46;;;;;;;10.95;4.93;;;35.00;36.00;;;;;;5034521;28;20072;-67
2021/08/15 11:48:14;;;;;;;7.00;3.70;;;34.20;37.20;;;;;;5032424;28;20425;-70
2021/08/15 11:50:48;;;;;;;6.32;3.28;;;33.70;37.30;;;;;;5034536;28;20379;-67
2021/08/15 11:53:30;;;;;;;6.65;4.22;;;33.20;38.40;;;;;;5034068;28;20045;-68
2021/08/15 11:55:58;;;;;;;9.25;4.20;;;32.90;39.00;;;;;;5033232;28;20029;-68
2021/08/15 11:58:23;;;;;;;11.32;4.63;;;32.60;39.00;;;;;;5028597;28;20152;-68
2021/08/15 12:00:50;;;;;;;8.20;3.92;;;32.40;39.50;;;;;;5032541;28;20116;-68
2021/08/15 12:03:19;;;;;;;14.15;8.35;;;32.10;40.30;;;;;;5034085;28;20447;-68
2021/08/15 12:05:49;;;;;;;21.58;15.90;;;31.90;40.80;;;;;;5035058;28;20674;-70
2021/08/15 12:08:17;;;;;;;11.57;8.25;;;31.60;41.30;;;;;;5035526;28;20049;-67
2021/08/15 12:10:47;;;;;;;12.40;7.43;;;31.40;41.80;;;;;;5034581;28;20426;-68
2021/08/15 12:13:23;;;;;;;11.90;6.35;;;31.40;42.20;;;;;;5033791;28;20035;-68
2021/08/15 12:16:09;;;;;;;13.77;6.88;;;31.40;42.60;;;;;;5035761;28;20029;-67
2021/08/15 12:18:47;;;;;;;9.65;6.28;;;31.40;42.30;;;;;;5034530;28;20021;-69
2021/08/15 12:21:19;;;;;;;13.02;6.38;;;31.30;42.70;;;;;;5024896;28;20029;-69
2021/08/15 12:24:11;;;;;;;8.57;5.38;;;31.20;42.90;;;;;;5033512;28;20113;-69
2021/08/15 12:26:57;;;;;;;8.88;6.03;;;31.00;43.00;;;;;;5035227;28;20047;-68
2021/08/15 12:29:24;;;;;;;12.02;6.53;;;30.80;43.70;;;;;;5034070;28;20030;-68
2021/08/15 12:32:02;;;;;;;14.73;8.07;;;30.80;43.60;;;;;;5034261;28;20095;-68
2021/08/15 12:34:28;;;;;;;11.07;6.47;;;30.80;43.90;;;;;;5035172;28;20068;-68
2021/08/15 12:36:56;;;;;;;12.45;5.88;;;30.70;44.20;;;;;;5033755;28;20080;-68